Pau Pyrénées Airport

Airport
ICAO code: 
LFBP
IATA Code: 
PUF
Summary
ICAO Region: 
EUR
Territory: 
Location: 
Uzein, Aquitaine
Serving: 
Pau
Elevation: 
616 ft
Coordinates: 
Aerial View: 
43° 22' 45.809" N, 0° 25' 6.432" W
Metar
Observation
LFBP 290330Z AUTO VRB01KT 9999 BKN056 OVC080 03/02 Q1013 NOSIG
Station
Pau
Date/Time
2021-11-29 03:30:00
Wind speed
01 kts
Lowest cloud amount
broken clouds
Temperature
3°C
Dew point
2°C
Humidity
93%
QNH
1013 hPa
Weather condition
n/a

Description

Pau Pyrénées Airport (French: Aéroport Pau Pyrénées) is an airport serving Pau, France. It is located 10 km northwest of Pau in Uzein.

Climatology

Temperate Marine climate/Oceanic climate (Köppen climate classification Cfb). Moderately cool summer and comparatively warm winter with a temperature range of only 14°C. Prevailing south-westerly winds from the Atlantic Ocean.

Runways

Designator Length Width Surface Rops
13/31 2500 45 ASP Yes/Yes
Airport map: 
Aerial View: 

SKYbrary Partners:

Safety knowledge contributed by: